Terminal Aerodrome Forecast
Issued by NWS

Home | Current Version | Previous Version | Text Only | Print | Product List | Glossary Off
Versions: 1 2 3 4 5 6 7 8 9 10 11 12 13 14 15 16 17 18

000
FTUS43 KICT 230700 AAA
TAFRSL
TAF AMD
KRSL 230708Z 2307/2406 17017KT P6SM VCSH OVC120
      TEMPO 2307/2311 6SM -RA SCT080 OVC120
     FM231100 17013KT P6SM VCSH OVC050
     FM231700 17017G25KT P6SM OVC050
     FM232300 17013KT P6SM BKN070=

USA.gov is the U.S. government's official web portal to all federal, state and local government web resources and services.